Terminal Aerodrome Forecast
Issued by NWS Cleveland, OH

Home | Current Version | Previous Version | Text Only | Print | Product List | Glossary Off
Versions: 1 2 3 4 5 6 7 8 9 10 11 12 13 14 15 16 17 18 19 20 21

000
FTUS41 KCLE 240529
TAFMFD
TAF
KMFD 240529Z 2406/2506 VRB03KT P6SM OVC200
     FM240900 17003KT 6SM BR SCT120 OVC200
      TEMPO 2410/2412 2SM BR
     FM241400 22010KT P6SM SCT040 SCT120 BKN200
     FM250100 18005KT P6SM SCT120 BKN200=

USA.gov is the U.S. government's official web portal to all federal, state and local government web resources and services.